РПИ Киев

Руководитель РПИ

Andriy Viter*

Инструкторы РПИ
Vladislav Savchuk (Instructor)
Входит в состав
vACC Украина

Диспетчеры РПИ

Диспетчер Рейтинг Допуски *

Аэропорты РПИ

ICAO Город Название Погода
UKBB Киев-Борисполь Борисполь UKBB 161830Z 23003MPS CAVOK M03/M06 Q1016 NOSIG
UKKO Житомир Житомир
UKKM Киев-Антонов Антонов UKKM 161830Z AUTO 21003MPS 9999 // NCD M03/M06 Q1015
UKKK Киев-Жуляны Жуляны UKKK 161830Z 23003MPS 9999 NSC M04/M06 Q1016 NOSIG
UKKE Черкассы Черкассы
UKKG Кировоград Кировоград